Time;durP1;ratioP1;P1;durP2;ratioP2;P2;SDS_P1;SDS_P2;PMS_P1;PMS_P2;Temp;Humidity;BMP_temperature;BMP_pressure;BME280_temperature;BME280_humidity;BME280_pressure;Samples;Min_cycle;Max_cycle;Signal;HPM_P1;HPM_P2
2022/07/06 00:00:39;;;;;;;1.63;1.03;;;;;;;;;;5003330;28;20211;-64
2022/07/06 00:03:11;;;;;;;1.87;1.40;;;;;;;;;;5002955;28;20253;-64
2022/07/06 00:05:44;;;;;;;1.93;1.10;;;;;;;;;;5001272;28;20271;-64
2022/07/06 00:08:15;;;;;;;1.10;0.77;;;;;;;;;;5006621;28;20187;-64
2022/07/06 00:10:48;;;;;;;2.33;1.10;;;;;;;;;;5006041;28;20197;-64
2022/07/06 00:13:19;;;;;;;1.27;0.80;;;;;;;;;;4983638;28;20215;-64
2022/07/06 00:15:49;;;;;;;1.47;0.87;;;;;;;;;;4999321;28;20242;-64
2022/07/06 00:18:20;;;;;;;1.80;1.10;;;;;;;;;;4994012;28;20208;-64
2022/07/06 00:20:50;;;;;;;1.60;1.23;;;;;;;;;;5005515;28;20519;-64
2022/07/06 00:23:23;;;;;;;1.83;1.10;;;;;;;;;;5007551;28;20679;-64
2022/07/06 00:25:55;;;;;;;3.93;1.10;;;;;;;;;;5004011;28;20196;-63
2022/07/06 00:28:28;;;;;;;1.10;1.00;;;;;;;;;;4993265;28;20184;-63
2022/07/06 00:31:05;;;;;;;1.60;1.07;;;;;;;;;;4998445;28;20199;-63
2022/07/06 00:33:46;;;;;;;1.80;1.30;;;;;;;;;;5004135;28;20206;-64
2022/07/06 00:36:15;;;;;;;1.10;1.00;;;;;;;;;;5008480;28;20234;-64
2022/07/06 00:38:47;;;;;;;2.63;1.20;;;;;;;;;;4976236;28;20200;-63
2022/07/06 00:41:25;;;;;;;3.00;1.20;;;;;;;;;;5011395;28;20199;-63
2022/07/06 00:43:58;;;;;;;2.10;1.00;;;;;;;;;;5002630;28;20316;-63
2022/07/06 00:46:28;;;;;;;1.20;1.10;;;;;;;;;;5009244;28;20199;-63
2022/07/06 00:49:02;;;;;;;2.77;1.23;;;;;;;;;;4991687;28;20211;-63
2022/07/06 00:51:33;;;;;;;1.53;1.13;;;;;;;;;;5013805;28;20215;-63
2022/07/06 00:54:04;;;;;;;1.17;1.00;;;;;;;;;;4973135;28;20215;-63
2022/07/06 00:56:35;;;;;;;2.30;1.20;;;;;;;;;;5004332;28;20208;-64
2022/07/06 00:59:07;;;;;;;1.53;1.10;;;;;;;;;;4998222;28;20242;-64
2022/07/06 01:01:37;;;;;;;1.33;0.80;;;;;;;;;;5014357;28;20251;-64
2022/07/06 01:04:05;;;;;;;1.20;0.90;;;;;;;;;;4992095;28;20307;-63
2022/07/06 01:06:37;;;;;;;1.43;1.07;;;;;;;;;;5014072;28;20199;-64
2022/07/06 01:09:10;;;;;;;1.30;1.17;;;;;;;;;;5002856;28;20206;-63
2022/07/06 01:11:43;;;;;;;2.27;1.00;;;;;;;;;;5003568;28;20192;-63
2022/07/06 01:14:26;;;;;;;1.13;1.03;;;;;;;;;;5008660;28;20224;-64
2022/07/06 01:16:57;;;;;;;1.93;1.07;;;;;;;;;;5007087;28;20208;-64
2022/07/06 01:19:28;;;;;;;1.23;0.87;;;;;;;;;;5003959;28;20562;-64
2022/07/06 01:21:59;;;;;;;1.57;1.17;;;;;;;;;;5010797;28;20218;-63
2022/07/06 01:24:30;;;;;;;1.80;1.30;;;;;;;;;;5006986;28;20226;-63
2022/07/06 01:27:02;;;;;;;1.70;1.30;;;;;;;;;;4998483;28;20215;-63
2022/07/06 01:29:34;;;;;;;1.00;0.93;;;;;;;;;;5006664;28;20192;-63
2022/07/06 01:32:10;;;;;;;1.27;1.17;;;;;;;;;;4980334;28;20620;-63
2022/07/06 01:34:40;;;;;;;1.10;1.00;;;;;;;;;;5003273;28;20203;-63
2022/07/06 01:37:11;;;;;;;1.53;1.10;;;;;;;;;;4991896;28;20236;-63
2022/07/06 01:39:40;;;;;;;1.37;1.27;;;;;;;;;;4989294;28;20215;-64
2022/07/06 01:42:17;;;;;;;1.37;1.20;;;;;;;;;;5010570;28;20269;-64
2022/07/06 01:44:46;;;;;;;1.60;1.00;;;;;;;;;;5001540;28;20684;-64
2022/07/06 01:47:27;;;;;;;2.33;1.10;;;;;;;;;;4991275;28;20195;-63
2022/07/06 01:49:56;;;;;;;2.20;1.30;;;;;;;;;;4992475;28;20287;-64
2022/07/06 01:52:25;;;;;;;1.13;1.03;;;;;;;;;;5011349;28;20280;-64
2022/07/06 01:54:56;;;;;;;2.03;1.23;;;;;;;;;;5002026;28;20705;-63
2022/07/06 01:57:26;;;;;;;1.80;0.80;;;;;;;;;;4973035;28;20216;-63
2022/07/06 01:59:57;;;;;;;1.87;1.17;;;;;;;;;;5019701;28;20874;-63
2022/07/06 02:02:28;;;;;;;2.50;1.10;;;;;;;;;;5010999;28;20258;-63
2022/07/06 02:04:59;;;;;;;2.03;1.10;;;;;;;;;;5004529;28;20257;-63
2022/07/06 02:07:30;;;;;;;1.73;1.10;;;;;;;;;;4999536;28;20644;-63
2022/07/06 02:10:01;;;;;;;0.97;0.90;;;;;;;;;;5017287;28;20215;-64
2022/07/06 02:12:30;;;;;;;2.60;1.30;;;;;;;;;;5027088;28;20187;-64
2022/07/06 02:15:00;;;;;;;1.40;1.10;;;;;;;;;;5000620;28;20978;-63
2022/07/06 02:17:29;;;;;;;2.17;1.20;;;;;;;;;;5010223;28;20211;-64
2022/07/06 02:20:01;;;;;;;1.23;1.00;;;;;;;;;;4994069;28;20214;-63
2022/07/06 02:22:30;;;;;;;1.57;1.20;;;;;;;;;;5010385;28;20215;-63
2022/07/06 02:25:01;;;;;;;1.43;1.10;;;;;;;;;;5025585;28;20318;-63
2022/07/06 02:27:31;;;;;;;1.50;1.10;;;;;;;;;;5014240;28;20222;-63
2022/07/06 02:30:00;;;;;;;1.37;1.27;;;;;;;;;;5017493;28;20234;-63
2022/07/06 02:32:29;;;;;;;2.03;1.40;;;;;;;;;;5004362;28;20663;-63
2022/07/06 02:35:05;;;;;;;1.47;1.20;;;;;;;;;;5014880;28;20268;-63
2022/07/06 02:37:36;;;;;;;2.00;1.30;;;;;;;;;;5012865;28;20881;-63
2022/07/06 02:40:06;;;;;;;1.60;1.27;;;;;;;;;;5016678;28;20207;-65
2022/07/06 02:42:35;;;;;;;2.50;1.40;;;;;;;;;;5017849;28;20202;-64
2022/07/06 02:45:11;;;;;;;3.47;1.10;;;;;;;;;;4995905;28;20231;-64
2022/07/06 02:47:41;;;;;;;1.30;1.20;;;;;;;;;;4999060;28;20214;-63
2022/07/06 02:50:13;;;;;;;1.60;1.37;;;;;;;;;;4995182;28;20284;-64
2022/07/06 02:52:42;;;;;;;2.83;1.30;;;;;;;;;;5007630;28;20191;-64
2022/07/06 02:55:13;;;;;;;2.00;1.13;;;;;;;;;;5002583;28;20199;-65
2022/07/06 02:57:46;;;;;;;1.70;1.20;;;;;;;;;;4988203;28;20239;-64
2022/07/06 03:00:17;;;;;;;2.13;1.27;;;;;;;;;;5007413;28;20597;-63
2022/07/06 03:02:49;;;;;;;1.60;1.07;;;;;;;;;;5008333;28;20195;-64
2022/07/06 03:05:22;;;;;;;1.53;1.20;;;;;;;;;;4992600;28;20199;-64
2022/07/06 03:07:52;;;;;;;1.77;1.20;;;;;;;;;;4988183;28;20212;-64
2022/07/06 03:10:24;;;;;;;2.07;1.20;;;;;;;;;;4990420;28;20206;-63
2022/07/06 03:12:53;;;;;;;1.90;1.40;;;;;;;;;;5004765;28;20854;-64
2022/07/06 03:15:24;;;;;;;2.47;1.43;;;;;;;;;;4988357;28;20223;-63
2022/07/06 03:17:55;;;;;;;1.23;1.13;;;;;;;;;;5017309;28;20269;-63
2022/07/06 03:20:25;;;;;;;2.63;1.37;;;;;;;;;;5005784;28;20219;-64
2022/07/06 03:22:55;;;;;;;2.00;1.20;;;;;;;;;;5016029;28;20351;-63
2022/07/06 03:25:25;;;;;;;1.30;0.90;;;;;;;;;;5007243;28;20187;-63
2022/07/06 03:28:01;;;;;;;1.50;1.20;;;;;;;;;;4982686;28;20243;-63
2022/07/06 03:30:30;;;;;;;1.70;1.27;;;;;;;;;;4991167;28;20238;-63
2022/07/06 03:33:00;;;;;;;1.63;1.30;;;;;;;;;;5009478;28;20663;-63
2022/07/06 03:35:35;;;;;;;3.57;1.23;;;;;;;;;;5025701;28;20246;-64
2022/07/06 03:38:06;;;;;;;2.03;1.47;;;;;;;;;;5018943;28;20276;-64
2022/07/06 03:40:42;;;;;;;2.33;1.50;;;;;;;;;;5016750;28;20190;-64
2022/07/06 03:43:12;;;;;;;1.80;1.10;;;;;;;;;;5032421;28;20257;-64
2022/07/06 03:45:44;;;;;;;2.27;1.30;;;;;;;;;;5036836;28;20195;-64
2022/07/06 03:48:16;;;;;;;3.10;1.37;;;;;;;;;;5026699;28;20199;-64
2022/07/06 03:50:46;;;;;;;2.97;1.30;;;;;;;;;;4999874;28;20195;-64
2022/07/06 03:53:16;;;;;;;2.10;1.33;;;;;;;;;;5024215;28;20187;-64
2022/07/06 03:58:45;;;;;;;2.33;1.40;;;;;;;;;;5028193;28;20207;-63
2022/07/06 04:01:17;;;;;;;2.30;1.30;;;;;;;;;;5011110;28;20477;-63
2022/07/06 04:03:49;;;;;;;1.20;1.03;;;;;;;;;;5022270;28;20221;-64
2022/07/06 04:06:20;;;;;;;1.37;1.10;;;;;;;;;;5023167;28;20217;-66
2022/07/06 04:08:52;;;;;;;1.70;1.10;;;;;;;;;;5020955;28;20207;-65
2022/07/06 04:11:23;;;;;;;2.40;1.00;;;;;;;;;;5022508;28;20533;-63
2022/07/06 04:13:54;;;;;;;1.37;1.27;;;;;;;;;;5023970;28;20211;-64
2022/07/06 04:16:25;;;;;;;3.17;1.10;;;;;;;;;;5021985;28;20515;-67
2022/07/06 04:18:57;;;;;;;1.93;1.20;;;;;;;;;;5007348;28;20218;-67
2022/07/06 04:21:26;;;;;;;1.27;1.07;;;;;;;;;;5016721;28;20203;-65
2022/07/06 04:23:55;;;;;;;2.10;1.47;;;;;;;;;;5006461;28;20574;-65
2022/07/06 04:26:26;;;;;;;1.90;1.20;;;;;;;;;;5023138;28;20219;-65
2022/07/06 04:28:56;;;;;;;1.57;1.23;;;;;;;;;;5028177;28;20199;-65
2022/07/06 04:31:29;;;;;;;1.37;1.00;;;;;;;;;;5036566;28;20195;-67
2022/07/06 04:34:00;;;;;;;2.27;1.30;;;;;;;;;;5010460;28;20237;-67
2022/07/06 04:36:31;;;;;;;1.80;1.43;;;;;;;;;;5039801;28;20242;-67
2022/07/06 04:39:02;;;;;;;1.23;1.10;;;;;;;;;;5022945;28;20632;-67
2022/07/06 04:41:31;;;;;;;2.60;1.37;;;;;;;;;;5032348;28;20538;-66
2022/07/06 04:44:00;;;;;;;1.93;1.40;;;;;;;;;;5016658;28;20220;-66
2022/07/06 04:46:30;;;;;;;3.67;1.60;;;;;;;;;;5025581;28;20188;-66
2022/07/06 04:48:58;;;;;;;1.87;1.33;;;;;;;;;;5008577;28;20203;-66
2022/07/06 04:51:29;;;;;;;3.43;1.47;;;;;;;;;;5025328;28;20199;-64
2022/07/06 04:53:59;;;;;;;3.87;1.90;;;;;;;;;;5006796;28;20199;-64
2022/07/06 04:56:32;;;;;;;17.70;4.77;;;;;;;;;;5021433;28;20226;-64
2022/07/06 04:59:00;;;;;;;26.73;8.90;;;;;;;;;;5020573;28;20203;-63
2022/07/06 05:01:32;;;;;;;28.47;9.60;;;;;;;;;;5032806;28;20269;-65
2022/07/06 05:04:02;;;;;;;26.13;8.13;;;;;;;;;;5032167;28;20219;-65
2022/07/06 05:06:35;;;;;;;23.90;7.97;;;;;;;;;;5032462;28;20194;-66
2022/07/06 05:09:05;;;;;;;19.17;6.73;;;;;;;;;;5027603;28;20199;-66
2022/07/06 05:11:37;;;;;;;13.90;5.20;;;;;;;;;;5030124;28;20195;-67
2022/07/06 05:14:19;;;;;;;9.97;4.30;;;;;;;;;;5030844;28;20637;-68
2022/07/06 05:16:51;;;;;;;9.40;3.53;;;;;;;;;;5028518;28;20222;-68
2022/07/06 05:19:24;;;;;;;6.17;2.70;;;;;;;;;;5024300;28;20223;-68
2022/07/06 05:21:54;;;;;;;7.67;3.17;;;;;;;;;;5023903;28;20190;-64
2022/07/06 05:24:22;;;;;;;6.77;3.10;;;;;;;;;;5012521;28;20222;-64
2022/07/06 05:26:52;;;;;;;14.60;4.20;;;;;;;;;;5028755;28;20199;-64
2022/07/06 05:29:21;;;;;;;20.77;5.83;;;;;;;;;;5027630;28;20215;-64
2022/07/06 05:31:53;;;;;;;16.83;4.73;;;;;;;;;;5027996;28;20793;-67
2022/07/06 05:34:24;;;;;;;16.67;4.80;;;;;;;;;;5015531;28;20205;-67
2022/07/06 05:36:55;;;;;;;9.67;3.97;;;;;;;;;;5017273;28;20314;-66
2022/07/06 05:39:24;;;;;;;12.87;3.67;;;;;;;;;;5033984;28;20221;-65
2022/07/06 05:41:55;;;;;;;9.10;3.47;;;;;;;;;;5012322;28;20195;-64
2022/07/06 05:44:25;;;;;;;6.57;2.83;;;;;;;;;;5022685;28;20234;-64
2022/07/06 05:50:11;;;;;;;6.40;2.80;;;;;;;;;;5011169;28;20191;-67
2022/07/06 05:52:37;;;;;;;5.50;1.87;;;;;;;;;;5023530;28;20214;-63
2022/07/06 05:55:08;;;;;;;4.67;2.10;;;;;;;;;;5017821;28;20628;-63
2022/07/06 05:57:37;;;;;;;3.60;2.00;;;;;;;;;;5012511;28;20685;-64
2022/07/06 06:00:08;;;;;;;2.83;1.67;;;;;;;;;;5030105;28;20203;-65
2022/07/06 06:02:41;;;;;;;2.50;1.63;;;;;;;;;;5028061;28;20240;-65
2022/07/06 06:05:11;;;;;;;3.43;1.70;;;;;;;;;;5025027;28;20257;-65
2022/07/06 06:07:43;;;;;;;4.03;1.87;;;;;;;;;;5027631;28;20372;-65
2022/07/06 06:10:32;;;;;;;3.93;1.60;;;;;;;;;;5028480;28;20284;-64
2022/07/06 06:13:05;;;;;;;3.57;1.73;;;;;;;;;;5025822;28;20190;-64
2022/07/06 06:15:35;;;;;;;3.70;1.70;;;;;;;;;;5027544;28;20199;-64
2022/07/06 06:18:06;;;;;;;3.10;1.60;;;;;;;;;;5011313;28;20206;-64
2022/07/06 06:20:37;;;;;;;2.90;1.70;;;;;;;;;;5025064;28;20615;-65
2022/07/06 06:23:08;;;;;;;2.77;1.47;;;;;;;;;;5014934;28;20194;-66
2022/07/06 06:25:39;;;;;;;2.30;1.33;;;;;;;;;;5017649;28;20215;-64
2022/07/06 06:28:10;;;;;;;1.80;1.40;;;;;;;;;;5024422;28;20198;-64
2022/07/06 06:30:42;;;;;;;1.93;1.33;;;;;;;;;;5013896;28;20203;-65
2022/07/06 06:33:16;;;;;;;1.70;1.30;;;;;;;;;;5040829;28;20666;-65
2022/07/06 06:35:46;;;;;;;2.03;1.30;;;;;;;;;;5035278;28;20195;-64
2022/07/06 06:38:17;;;;;;;1.80;1.20;;;;;;;;;;5008761;28;20238;-64
2022/07/06 06:40:47;;;;;;;2.03;1.20;;;;;;;;;;5036092;28;20684;-65
2022/07/06 06:43:16;;;;;;;1.60;1.20;;;;;;;;;;5024517;28;20211;-66
2022/07/06 06:45:50;;;;;;;2.53;1.60;;;;;;;;;;5034487;28;20242;-64
2022/07/06 06:48:23;;;;;;;2.93;1.33;;;;;;;;;;5027605;28;20187;-64
2022/07/06 06:50:53;;;;;;;2.70;1.40;;;;;;;;;;5027789;28;20199;-66
2022/07/06 06:53:24;;;;;;;2.63;1.40;;;;;;;;;;5028512;28;20747;-67
2022/07/06 06:55:54;;;;;;;2.53;1.30;;;;;;;;;;5024005;28;20215;-64
2022/07/06 06:58:26;;;;;;;1.67;1.30;;;;;;;;;;5026930;28;20201;-64
2022/07/06 07:01:22;;;;;;;4.10;1.17;;;;;;;;;;5010988;28;20683;-64
2022/07/06 07:03:54;;;;;;;2.03;1.33;;;;;;;;;;5027370;28;20183;-64
2022/07/06 07:06:35;;;;;;;1.47;1.00;;;;;;;;;;5011884;28;20239;-63
2022/07/06 07:09:07;;;;;;;1.87;1.53;;;;;;;;;;5003856;28;20628;-63
2022/07/06 07:11:36;;;;;;;2.83;1.07;;;;;;;;;;5030014;28;20202;-64
2022/07/06 07:14:07;;;;;;;2.73;1.50;;;;;;;;;;5028188;28;20206;-64
2022/07/06 07:16:41;;;;;;;3.90;1.20;;;;;;;;;;5021830;28;20195;-64
2022/07/06 07:19:11;;;;;;;1.73;1.00;;;;;;;;;;5021567;28;20196;-64
2022/07/06 07:21:41;;;;;;;1.80;1.00;;;;;;;;;;5007603;28;20191;-64
2022/07/06 07:24:12;;;;;;;1.57;1.20;;;;;;;;;;5002799;28;20191;-63
2022/07/06 07:26:42;;;;;;;2.63;1.13;;;;;;;;;;5014488;28;20191;-63
2022/07/06 07:29:13;;;;;;;1.87;1.10;;;;;;;;;;5019365;28;20199;-63
2022/07/06 07:31:44;;;;;;;2.37;1.00;;;;;;;;;;5003790;28;20206;-64
2022/07/06 07:34:18;;;;;;;1.73;1.00;;;;;;;;;;5045933;28;20195;-64
2022/07/06 07:36:47;;;;;;;2.00;1.23;;;;;;;;;;5042421;28;20691;-63
2022/07/06 07:39:17;;;;;;;4.57;1.40;;;;;;;;;;5039412;28;20282;-63
2022/07/06 07:41:45;;;;;;;2.00;1.27;;;;;;;;;;5029570;28;20226;-64
2022/07/06 07:44:16;;;;;;;2.17;1.00;;;;;;;;;;5023365;28;20844;-64
2022/07/06 07:46:48;;;;;;;2.13;0.93;;;;;;;;;;5026611;28;20215;-64
2022/07/06 07:49:23;;;;;;;2.30;0.80;;;;;;;;;;5006969;28;20183;-63
2022/07/06 07:51:57;;;;;;;1.60;0.87;;;;;;;;;;5026501;28;20191;-66
2022/07/06 07:54:27;;;;;;;1.73;0.90;;;;;;;;;;5026464;28;20205;-65
2022/07/06 07:56:59;;;;;;;1.07;0.60;;;;;;;;;;5021214;28;20218;-67
2022/07/06 07:59:42;;;;;;;3.37;0.90;;;;;;;;;;5011278;28;20592;-67
2022/07/06 08:02:14;;;;;;;1.93;0.70;;;;;;;;;;5026932;28;20230;-67
2022/07/06 08:04:46;;;;;;;1.40;0.80;;;;;;;;;;5029255;28;20297;-67
2022/07/06 08:07:17;;;;;;;1.50;1.03;;;;;;;;;;5021283;28;20195;-64
2022/07/06 08:09:47;;;;;;;1.53;0.73;;;;;;;;;;5026287;28;20616;-64
2022/07/06 08:12:17;;;;;;;4.50;1.07;;;;;;;;;;5026520;28;20187;-64
2022/07/06 08:15:00;;;;;;;1.17;0.90;;;;;;;;;;5029702;28;20210;-63
2022/07/06 08:17:32;;;;;;;2.30;0.80;;;;;;;;;;5038816;28;20229;-63
2022/07/06 08:20:03;;;;;;;1.07;0.60;;;;;;;;;;5025929;28;20305;-64
2022/07/06 08:22:35;;;;;;;1.03;0.80;;;;;;;;;;5026378;28;20211;-63
2022/07/06 08:25:18;;;;;;;1.77;0.87;;;;;;;;;;4991696;28;20238;-64
2022/07/06 08:28:05;;;;;;;3.60;0.93;;;;;;;;;;5010008;28;20816;-64
2022/07/06 08:30:37;;;;;;;2.30;0.80;;;;;;;;;;5029290;28;20515;-63
2022/07/06 08:33:10;;;;;;;1.47;0.90;;;;;;;;;;5038812;28;20203;-64
2022/07/06 08:35:42;;;;;;;1.33;0.77;;;;;;;;;;5041545;28;20191;-64
2022/07/06 08:38:14;;;;;;;1.93;0.80;;;;;;;;;;5011251;28;20589;-63
2022/07/06 08:40:55;;;;;;;1.90;0.90;;;;;;;;;;5012969;28;20662;-64
2022/07/06 08:43:23;;;;;;;2.90;1.30;;;;;;;;;;4990802;28;20216;-64
2022/07/06 08:45:59;;;;;;;1.03;0.70;;;;;;;;;;5020994;28;20227;-64
2022/07/06 08:48:32;;;;;;;1.23;0.73;;;;;;;;;;5014128;28;20334;-63
2022/07/06 08:51:03;;;;;;;1.20;0.70;;;;;;;;;;5008218;28;20253;-64
2022/07/06 08:53:36;;;;;;;1.70;0.80;;;;;;;;;;5008140;28;20200;-63
2022/07/06 08:56:08;;;;;;;2.53;0.80;;;;;;;;;;5006874;28;20230;-64
2022/07/06 08:58:42;;;;;;;1.67;0.90;;;;;;;;;;5014547;28;20187;-63
2022/07/06 09:01:15;;;;;;;2.10;0.73;;;;;;;;;;5024293;28;20199;-64
2022/07/06 09:03:48;;;;;;;1.23;0.70;;;;;;;;;;5002695;28;20712;-64
2022/07/06 09:06:21;;;;;;;1.03;0.70;;;;;;;;;;5009880;28;20203;-64
2022/07/06 09:08:58;;;;;;;1.40;0.53;;;;;;;;;;5024436;28;20703;-64
2022/07/06 09:11:29;;;;;;;1.60;0.87;;;;;;;;;;4990817;28;20191;-63
2022/07/06 09:14:01;;;;;;;2.00;1.00;;;;;;;;;;5001970;28;20226;-64
2022/07/06 09:16:32;;;;;;;1.30;0.80;;;;;;;;;;5015273;28;20206;-64
2022/07/06 09:19:08;;;;;;;1.40;0.80;;;;;;;;;;5014677;28;20190;-64
2022/07/06 09:21:41;;;;;;;0.90;0.63;;;;;;;;;;5010059;28;20203;-64
2022/07/06 09:24:14;;;;;;;1.80;0.60;;;;;;;;;;4996161;28;20474;-64
2022/07/06 09:26:48;;;;;;;2.07;0.70;;;;;;;;;;4996110;28;20235;-64
2022/07/06 09:29:19;;;;;;;0.70;0.60;;;;;;;;;;5008493;28;20735;-63
2022/07/06 09:32:01;;;;;;;1.73;0.93;;;;;;;;;;5008366;28;20222;-64
2022/07/06 09:34:45;;;;;;;1.07;0.50;;;;;;;;;;5010387;28;20195;-64
2022/07/06 09:37:16;;;;;;;1.53;0.80;;;;;;;;;;4989547;28;20237;-64
2022/07/06 09:39:53;;;;;;;2.00;0.90;;;;;;;;;;5023928;28;20207;-65
2022/07/06 09:42:28;;;;;;;1.53;0.80;;;;;;;;;;5029217;28;20196;-64
2022/07/06 09:45:15;;;;;;;1.77;0.90;;;;;;;;;;5008651;28;20227;-64
2022/07/06 09:47:52;;;;;;;1.67;0.70;;;;;;;;;;5011372;28;20549;-64
2022/07/06 09:50:21;;;;;;;1.47;0.90;;;;;;;;;;5027735;28;20237;-64
2022/07/06 09:52:56;;;;;;;0.93;0.70;;;;;;;;;;5037159;28;20229;-64
2022/07/06 09:55:28;;;;;;;1.43;1.00;;;;;;;;;;5024041;28;20211;-64
2022/07/06 09:57:59;;;;;;;1.57;0.80;;;;;;;;;;5028381;28;20636;-64
2022/07/06 10:00:30;;;;;;;2.03;0.93;;;;;;;;;;5030723;28;20187;-64
2022/07/06 10:03:00;;;;;;;2.17;1.17;;;;;;;;;;5030411;28;20277;-64
2022/07/06 10:05:32;;;;;;;3.07;0.90;;;;;;;;;;5035920;28;20245;-64
2022/07/06 10:08:11;;;;;;;3.00;0.90;;;;;;;;;;5016892;28;20214;-64
2022/07/06 10:10:42;;;;;;;1.63;0.87;;;;;;;;;;5028529;28;20222;-64
2022/07/06 10:13:15;;;;;;;2.53;0.83;;;;;;;;;;5026296;28;20206;-64
2022/07/06 10:15:47;;;;;;;0.93;0.53;;;;;;;;;;5028776;28;20203;-64
2022/07/06 10:18:16;;;;;;;1.60;0.60;;;;;;;;;;5028620;28;20205;-64
2022/07/06 10:20:45;;;;;;;1.00;0.60;;;;;;;;;;5038655;28;20248;-64
2022/07/06 10:23:18;;;;;;;2.60;0.70;;;;;;;;;;5026506;28;20195;-64
2022/07/06 10:25:52;;;;;;;3.10;0.77;;;;;;;;;;5027937;28;20215;-64
2022/07/06 10:28:24;;;;;;;1.20;0.60;;;;;;;;;;5019234;28;20229;-64
2022/07/06 10:30:57;;;;;;;0.77;0.57;;;;;;;;;;5011153;28;20561;-64
2022/07/06 10:33:28;;;;;;;1.60;0.77;;;;;;;;;;5024922;28;20218;-64
2022/07/06 10:35:59;;;;;;;3.10;0.80;;;;;;;;;;4995234;28;20195;-64
2022/07/06 10:38:33;;;;;;;1.27;0.70;;;;;;;;;;5028341;28;20230;-64
2022/07/06 10:41:13;;;;;;;1.87;0.70;;;;;;;;;;5026712;28;20279;-64
2022/07/06 10:43:56;;;;;;;1.03;0.60;;;;;;;;;;5028629;28;20218;-64
2022/07/06 10:46:49;;;;;;;0.87;0.70;;;;;;;;;;5030273;28;20238;-64
2022/07/06 10:49:22;;;;;;;1.80;0.67;;;;;;;;;;5028051;28;20660;-64
2022/07/06 10:52:17;;;;;;;2.43;0.60;;;;;;;;;;5028058;28;20203;-64
2022/07/06 10:54:47;;;;;;;1.83;0.50;;;;;;;;;;5005139;28;20191;-64
2022/07/06 10:57:18;;;;;;;0.83;0.70;;;;;;;;;;5019146;28;20218;-64
2022/07/06 11:00:08;;;;;;;1.77;0.50;;;;;;;;;;5018219;28;20234;-64
2022/07/06 11:02:43;;;;;;;2.53;0.70;;;;;;;;;;5028275;28;20211;-64
2022/07/06 11:05:36;;;;;;;1.23;0.70;;;;;;;;;;5007008;28;20207;-64
2022/07/06 11:08:43;;;;;;;1.50;0.60;;;;;;;;;;5024408;28;20219;-64
2022/07/06 11:11:12;;;;;;;1.80;0.70;;;;;;;;;;5028258;28;20641;-64
2022/07/06 11:13:59;;;;;;;1.83;0.80;;;;;;;;;;5029738;28;20191;-64
2022/07/06 11:16:33;;;;;;;2.07;0.80;;;;;;;;;;5029511;28;20198;-64
2022/07/06 11:19:09;;;;;;;2.17;0.73;;;;;;;;;;5026159;28;20676;-64
2022/07/06 11:21:41;;;;;;;1.90;0.60;;;;;;;;;;5026938;28;20199;-64
2022/07/06 11:24:14;;;;;;;2.30;0.80;;;;;;;;;;5027353;28;20221;-64
2022/07/06 11:26:46;;;;;;;1.60;0.93;;;;;;;;;;4982471;28;20226;-64
2022/07/06 11:29:29;;;;;;;2.57;0.77;;;;;;;;;;5025542;28;20194;-64
2022/07/06 11:32:04;;;;;;;1.87;0.67;;;;;;;;;;5024541;28;20287;-64
2022/07/06 11:34:36;;;;;;;1.20;0.53;;;;;;;;;;5029098;28;20619;-64
2022/07/06 11:37:17;;;;;;;2.57;1.10;;;;;;;;;;5032645;28;20254;-64
2022/07/06 11:40:13;;;;;;;1.50;0.70;;;;;;;;;;5014501;28;20195;-64
2022/07/06 11:42:52;;;;;;;1.43;0.80;;;;;;;;;;5022764;28;20525;-64
2022/07/06 11:45:31;;;;;;;1.27;0.60;;;;;;;;;;5014412;28;20209;-64
2022/07/06 11:48:12;;;;;;;0.97;0.50;;;;;;;;;;5026915;28;20596;-64
2022/07/06 11:50:39;;;;;;;1.23;0.73;;;;;;;;;;5027017;28;20191;-64
2022/07/06 11:53:10;;;;;;;2.83;0.80;;;;;;;;;;5024182;28;20199;-64
2022/07/06 11:55:41;;;;;;;2.10;0.70;;;;;;;;;;5011312;28;20225;-64
2022/07/06 11:58:13;;;;;;;1.63;0.80;;;;;;;;;;5019201;28;20191;-64
2022/07/06 12:00:46;;;;;;;1.10;0.60;;;;;;;;;;5031344;28;20221;-64
2022/07/06 12:03:21;;;;;;;2.60;0.87;;;;;;;;;;5026790;28;20208;-64
2022/07/06 12:05:54;;;;;;;1.63;0.60;;;;;;;;;;5013234;28;20254;-64
2022/07/06 12:08:24;;;;;;;1.67;0.80;;;;;;;;;;5033010;28;20662;-64
2022/07/06 12:10:56;;;;;;;0.97;0.50;;;;;;;;;;5023520;28;20206;-64
2022/07/06 12:13:30;;;;;;;1.63;0.63;;;;;;;;;;5035094;28;20273;-64
2022/07/06 12:16:12;;;;;;;0.93;0.60;;;;;;;;;;5034274;28;20307;-64
2022/07/06 12:18:49;;;;;;;1.70;0.80;;;;;;;;;;5010783;28;20198;-64
2022/07/06 12:21:22;;;;;;;1.37;0.90;;;;;;;;;;5009276;28;20233;-64
2022/07/06 12:23:57;;;;;;;1.40;0.90;;;;;;;;;;5028842;28;20203;-64
2022/07/06 12:26:38;;;;;;;2.35;0.82;;;;;;;;;;5016976;28;20504;-69
2022/07/06 12:29:13;;;;;;;2.63;0.80;;;;;;;;;;5016877;28;20175;-68
2022/07/06 12:32:01;;;;;;;1.27;0.90;;;;;;;;;;5005553;28;20207;-66
2022/07/06 12:34:36;;;;;;;0.67;0.50;;;;;;;;;;5021927;28;20241;-64
2022/07/06 12:37:09;;;;;;;1.30;0.60;;;;;;;;;;5005294;28;20230;-68
2022/07/06 12:39:47;;;;;;;0.73;0.50;;;;;;;;;;5032746;28;20570;-67
2022/07/06 12:42:20;;;;;;;1.67;0.60;;;;;;;;;;5032204;28;20222;-67
2022/07/06 12:44:55;;;;;;;0.70;0.60;;;;;;;;;;5028414;28;20210;-68
2022/07/06 12:47:26;;;;;;;1.43;0.67;;;;;;;;;;5027179;28;20271;-71
2022/07/06 12:50:06;;;;;;;2.63;0.77;;;;;;;;;;5013902;28;20513;-68
2022/07/06 12:52:44;;;;;;;0.57;0.50;;;;;;;;;;5029725;28;20633;-67
2022/07/06 12:55:15;;;;;;;1.43;0.60;;;;;;;;;;5024330;28;20187;-69
2022/07/06 12:57:51;;;;;;;1.20;0.80;;;;;;;;;;5012759;28;20213;-65
2022/07/06 13:00:23;;;;;;;1.73;0.80;;;;;;;;;;5030498;28;20565;-68
2022/07/06 13:02:55;;;;;;;1.70;0.70;;;;;;;;;;5030250;28;20235;-68
2022/07/06 13:05:42;;;;;;;3.80;0.90;;;;;;;;;;5028567;28;20195;-68
2022/07/06 13:08:14;;;;;;;1.43;0.70;;;;;;;;;;5005510;28;20262;-69
2022/07/06 13:10:45;;;;;;;2.83;0.80;;;;;;;;;;5027785;28;20263;-67
2022/07/06 13:13:12;;;;;;;1.50;0.70;;;;;;;;;;5027695;28;20191;-66
2022/07/06 13:15:45;;;;;;;2.43;0.60;;;;;;;;;;5010014;28;20286;-69
2022/07/06 13:18:21;;;;;;;2.57;0.90;;;;;;;;;;5029705;28;20198;-69
2022/07/06 13:20:48;;;;;;;2.00;0.80;;;;;;;;;;5030743;28;20206;-70
2022/07/06 13:23:17;;;;;;;0.57;0.50;;;;;;;;;;5026343;28;20199;-69
2022/07/06 13:25:49;;;;;;;2.60;0.90;;;;;;;;;;5029381;28;20191;-67
2022/07/06 13:28:17;;;;;;;2.73;0.83;;;;;;;;;;5029544;28;20210;-67
2022/07/06 13:30:49;;;;;;;1.20;0.70;;;;;;;;;;5029966;28;20308;-67
2022/07/06 13:33:25;;;;;;;0.60;0.60;;;;;;;;;;5014435;28;20326;-67
2022/07/06 13:36:09;;;;;;;0.83;0.60;;;;;;;;;;5016109;28;20234;-69
2022/07/06 13:38:39;;;;;;;1.80;0.90;;;;;;;;;;5028874;28;20297;-70
2022/07/06 13:41:10;;;;;;;0.90;0.70;;;;;;;;;;5016199;28;20265;-69
2022/07/06 13:43:43;;;;;;;1.87;0.90;;;;;;;;;;5006881;28;20214;-70
2022/07/06 13:46:14;;;;;;;1.13;0.67;;;;;;;;;;5012419;28;20221;-69
2022/07/06 13:48:51;;;;;;;2.70;0.80;;;;;;;;;;5037218;28;20624;-67
2022/07/06 13:51:20;;;;;;;1.73;0.80;;;;;;;;;;5013226;28;20269;-67
2022/07/06 13:53:50;;;;;;;2.00;0.60;;;;;;;;;;5028993;28;20187;-68
2022/07/06 13:56:22;;;;;;;1.50;0.60;;;;;;;;;;5004390;28;20227;-68
2022/07/06 13:58:53;;;;;;;1.37;0.90;;;;;;;;;;5033120;28;20624;-68
2022/07/06 14:01:22;;;;;;;2.73;0.70;;;;;;;;;;5043081;28;20212;-68
2022/07/06 14:03:58;;;;;;;2.33;0.80;;;;;;;;;;5019412;28;20205;-68
2022/07/06 14:06:27;;;;;;;1.17;0.67;;;;;;;;;;5012370;28;20231;-67
2022/07/06 14:08:57;;;;;;;1.03;0.50;;;;;;;;;;5023473;28;20199;-68
2022/07/06 14:11:28;;;;;;;1.43;0.60;;;;;;;;;;5027305;28;20218;-69
2022/07/06 14:13:59;;;;;;;1.40;0.67;;;;;;;;;;5028230;28;20282;-69
2022/07/06 14:16:31;;;;;;;1.83;0.60;;;;;;;;;;5036024;28;20205;-69
2022/07/06 14:19:02;;;;;;;1.07;0.77;;;;;;;;;;5012270;28;20237;-68
2022/07/06 14:21:31;;;;;;;0.77;0.47;;;;;;;;;;5027795;28;20213;-69
2022/07/06 14:23:59;;;;;;;3.63;0.60;;;;;;;;;;5025468;28;20213;-68
2022/07/06 14:26:27;;;;;;;0.67;0.53;;;;;;;;;;5028042;28;20590;-69
2022/07/06 14:28:56;;;;;;;1.80;0.87;;;;;;;;;;5041573;28;20201;-69
2022/07/06 14:31:24;;;;;;;0.90;0.53;;;;;;;;;;5030881;28;20203;-67
2022/07/06 14:33:56;;;;;;;1.47;0.77;;;;;;;;;;5029616;28;20611;-68
2022/07/06 14:36:31;;;;;;;3.50;0.87;;;;;;;;;;5026819;28;20191;-68
2022/07/06 14:39:01;;;;;;;1.83;0.80;;;;;;;;;;5027595;28;20277;-68
2022/07/06 14:41:29;;;;;;;1.30;0.53;;;;;;;;;;5033703;28;20201;-70
2022/07/06 14:43:59;;;;;;;1.47;0.60;;;;;;;;;;5019712;28;20215;-68
2022/07/06 14:46:31;;;;;;;4.90;0.90;;;;;;;;;;5032418;28;20222;-68
2022/07/06 14:49:02;;;;;;;2.33;0.87;;;;;;;;;;5009760;28;20211;-68
2022/07/06 14:51:31;;;;;;;1.17;0.80;;;;;;;;;;5026607;28;20201;-69
2022/07/06 14:54:01;;;;;;;2.03;0.77;;;;;;;;;;5028866;28;20207;-68
2022/07/06 14:56:30;;;;;;;0.70;0.50;;;;;;;;;;5010341;28;20203;-68
2022/07/06 14:58:59;;;;;;;0.93;0.60;;;;;;;;;;5027269;28;20214;-70
2022/07/06 15:01:51;;;;;;;0.63;0.60;;;;;;;;;;5028309;28;20195;-70
2022/07/06 15:04:24;;;;;;;1.60;0.77;;;;;;;;;;5010400;28;20256;-70
2022/07/06 15:06:56;;;;;;;0.73;0.63;;;;;;;;;;5005197;28;20222;-69
2022/07/06 15:09:28;;;;;;;0.83;0.50;;;;;;;;;;5024831;28;20206;-68
2022/07/06 15:12:11;;;;;;;0.80;0.47;;;;;;;;;;5031713;28;20237;-70
2022/07/06 15:14:43;;;;;;;1.63;0.70;;;;;;;;;;5028179;28;20283;-69
2022/07/06 15:17:16;;;;;;;1.80;0.70;;;;;;;;;;5023787;28;20277;-70
2022/07/06 15:19:52;;;;;;;1.10;0.60;;;;;;;;;;4996362;28;20214;-69
2022/07/06 15:22:25;;;;;;;2.10;1.00;;;;;;;;;;5018115;28;20207;-69